• Join FlightAware (Why Join?)
  • Login
  • US Flag 
05:48AM EDT


 

Airport Tracker/Info


-or-


 

Live Flight TrackerFlight Track Log ✈ QLK375 ✈ 06-Sep-2013 ✈ YSSY / SYD - NVVV / VLI

Flight Track Log - Related Links

Times and Time Zones

All times are in EDT time to prevent confusion due to time zone crossing. See the QLK375 flight status page for this flight to view local times or setup timezone preferences in your user account.

Time Position Orientation Groundspeed Altitude Reporting Facility
EDT Latitude Longitude Course Direction KTS MPH feet Rate Location/Type
09:17PM -33.9859 151.1993 122° Southeast 152 175 1,200  Level Aus ATC (RADAR)
09:17PM -34.0098 151.2463 122° Southeast 213 245 2,100 1,980 Climbing Aus ATC (RADAR)
09:19PM -34.0288 151.4113 98° East 288 331 6,400 2,340 Climbing Aus ATC (RADAR)
09:20PM -33.9676 151.4620 35° Northeast 285 328 8,800 2,280 Climbing Aus ATC (RADAR)
09:21PM -33.9027 151.5017 27° Northeast 297 342 10,600 1,800 Climbing Aus ATC (RADAR)
09:22PM -33.8543 151.5248 22° Northeast 318 366 11,400 1,680 Climbing Aus ATC (RADAR)
09:22PM -33.7861 151.5475 15° North 336 387 12,900 2,160 Climbing Aus ATC (RADAR)
09:24PM -33.6406 151.5986 16° North 362 417 16,300 2,040 Climbing Aus ATC (RADAR)
09:25PM -33.5493 151.6308 16° North 395 455 17,900 1,980 Climbing Aus ATC (RADAR)
09:25PM -33.4816 151.6544 16° North 400 460 19,300 1,800 Climbing Aus ATC (RADAR)
09:26PM -33.3986 151.6832 16° North 411 473 20,400 1,680 Climbing Aus ATC (RADAR)
09:27PM -33.3279 151.7074 16° North 427 491 21,700 2,160 Climbing Aus ATC (RADAR)
09:28PM -33.2386 151.7386 16° North 416 479 23,500 1,560 Climbing Aus ATC (RADAR)
09:29PM -33.0379 151.8304 21° North 454 522 25,800 1,320 Climbing Aus ATC (RADAR)
09:30PM -32.9742 151.8741 30° Northeast 455 524 26,700 1,380 Climbing Aus ATC (RADAR)
09:31PM -32.8721 151.9436 30° Northeast 463 533 27,900 1,500 Climbing Aus ATC (RADAR)
09:32PM -32.7786 152.0035 28° Northeast 453 521 29,300 1,620 Climbing Aus ATC (RADAR)
09:32PM -32.7137 152.0455 29° Northeast 452 520 30,200 1,260 Climbing Aus ATC (RADAR)
09:33PM -32.6179 152.1069 28° Northeast 453 521 31,200 1,080 Climbing Aus ATC (RADAR)
09:34PM -32.4914 152.1891 29° Northeast 451 519 32,400 1,080 Climbing Aus ATC (RADAR)
09:35PM -32.4238 152.2357 30° Northeast 455 524 33,100 720 Climbing Aus ATC (RADAR)
09:36PM -32.3590 152.2775 29° Northeast 452 520 33,300 180 Climbing Aus ATC (RADAR)
09:36PM -32.2687 152.3354 28° Northeast 460 529 33,400  Climbing Aus ATC (RADAR)
09:37PM -32.1531 152.4098 29° Northeast 456 525 33,400  Level Aus ATC (RADAR)
09:38PM -32.0812 152.4559 28° Northeast 460 529 33,400  Level Aus ATC (RADAR)
09:39PM -32.0150 152.4980 28° Northeast 460 529 33,400  Level Aus ATC (RADAR)
09:40PM -31.8920 152.5770 29° Northeast 465 535 33,400  Level Aus ATC (RADAR)
09:41PM -31.7754 152.6509 28° Northeast 457 526 33,400  Level Aus ATC (RADAR)
09:41PM -31.6908 152.7055 29° Northeast 455 524 33,400  Level Aus ATC (RADAR)
09:42PM -31.6189 152.7511 28° Northeast 460 529 33,400  Level Aus ATC (RADAR)
09:43PM -31.5343 152.8044 28° Northeast 461 531 33,400  Level Aus ATC (RADAR)
09:45PM -31.3536 152.9441 33° Northeast 452 520 33,400  Level Aus ATC (RADAR)
09:45PM -31.2649 153.0275 39° Northeast 462 532 33,400  Level Aus ATC (RADAR)
09:46PM -31.2064 153.0818 38° Northeast 462 532 33,400  Level Aus ATC (RADAR)
09:47PM -31.1271 153.1550 38° Northeast 452 520 33,400  Level Aus ATC (RADAR)
09:47PM -31.0639 153.2142 39° Northeast 464 534 33,400  Level Aus ATC (RADAR)
09:48PM -30.9884 153.2843 39° Northeast 462 532 33,400  Level Aus ATC (RADAR)
09:49PM -30.8613 153.4011 38° Northeast 466 536 33,400  Level Aus ATC (RADAR)
09:50PM -30.7978 153.4586 38° Northeast 456 525 33,400  Level Aus ATC (RADAR)
09:51PM -30.7340 153.5177 39° Northeast 466 536 33,400  Level Aus ATC (RADAR)
09:51PM -30.6574 153.5876 38° Northeast 467 537 33,400  Level Aus ATC (RADAR)
09:52PM -30.5614 153.6894 42° Northeast 467 537 33,400  Level Aus ATC (RADAR)
09:53PM -30.4922 153.7685 45° Northeast 468 539 33,400  Level Aus ATC (RADAR)
09:54PM -30.4384 153.8299 45° Northeast 465 535 33,400  Level Aus ATC (RADAR)
09:55PM -30.3375 153.9433 44° Northeast 466 536 33,400  Level Aus ATC (RADAR)
09:56PM -30.2445 154.0484 44° Northeast 468 539 33,400  Level Aus ATC (RADAR)
09:57PM -30.1718 154.1300 44° Northeast 453 521 33,400  Level Aus ATC (RADAR)
09:57PM -30.1129 154.1963 44° Northeast 467 537 33,400  Level Aus ATC (RADAR)
09:58PM -30.0428 154.2751 44° Northeast 469 540 33,400  Level Aus ATC (RADAR)
09:59PM -29.9488 154.3803 44° Northeast 471 542 33,400  Level Aus ATC (RADAR)
10:00PM -29.8550 154.4852 44° Northeast 470 541 33,400  Level Aus ATC (RADAR)
10:01PM -29.7580 154.5939 44° Northeast 455 524 33,400  Level Aus ATC (RADAR)
10:02PM -29.6874 154.6721 44° Northeast 455 524 33,400  Level Aus ATC (RADAR)
10:02PM -29.6317 154.7330 44° Northeast 456 525 33,400  Level Aus ATC (RADAR)
10:03PM -29.5566 154.8164 44° Northeast 471 542 33,400  Level Aus ATC (RADAR)
10:04PM -29.4625 154.9203 44° Northeast 470 541 33,400  Level Aus ATC (RADAR)
10:05PM -29.3531 155.0410 44° Northeast 468 539 33,400  Level Aus ATC (RADAR)
10:06PM -29.2591 155.1446 44° Northeast 465 535 33,400  Level Aus ATC (RADAR)
10:07PM -29.1842 155.2231 42° Northeast 450 518 33,400  Level Aus ATC (RADAR)
10:08PM -29.1307 155.2833 45° Northeast 447 514 33,400 60 Level Aus ATC (RADAR)
10:08PM -29.0566 155.3660 44° Northeast 464 534 33,500  Climbing Aus ATC (RADAR)
10:10PM -28.9015 155.5353 44° Northeast 463 533 33,400 -60 Descending Aus ATC (RADAR)
10:11PM -28.8238 155.6193 43° Northeast 462 532 33,400  Level Aus ATC (RADAR)
10:11PM -28.7697 155.6779 44° Northeast 460 529 33,400 60 Level Aus ATC (RADAR)
10:12PM -28.6918 155.7620 43° Northeast 462 532 33,500  Climbing Aus ATC (RADAR)
10:13PM -28.6380 155.8208 44° Northeast 460 529 33,400 -120 Descending Aus ATC (RADAR)
10:14PM -28.5608 155.9043 44° Northeast 459 528 33,400  Level Aus ATC (RADAR)
10:15PM -28.3979 156.0787 43° Northeast 458 527 33,400  Level Aus ATC (RADAR)
10:16PM -28.3214 156.1617 44° Northeast 456 525 33,400  Level Aus ATC (RADAR)
10:17PM -28.2438 156.2442 43° Northeast 457 526 33,400  Level Aus ATC (RADAR)
10:18PM -28.1974 156.2936 43° Northeast 456 525 33,400  Level Aus ATC (RADAR)
10:18PM -28.1288 156.3674 44° Northeast 454 522 33,400  Level Aus ATC (RADAR)
10:20PM -27.9821 156.5225 43° Northeast 454 522 33,400  Level Aus ATC (RADAR)
10:21PM -27.9055 156.6039 43° Northeast 452 520 33,400 60 Level Aus ATC (RADAR)
10:21PM -27.8440 156.6689 43° Northeast 452 520 33,500 60 Climbing Aus ATC (RADAR)
10:22PM -27.7765 156.7420 44° Northeast 448 516 33,500 -120 Level Aus ATC (RADAR)
10:23PM -27.7240 156.7988 44° Northeast 446 513 33,400 -120 Descending Aus ATC (RADAR)
10:24PM -27.6382 156.8881 43° Northeast 453 521 33,400 -240 Level Aus ATC (RADAR)
10:25PM -27.5464 156.9855 43° Northeast 453 521 33,000 -240 Descending Aus ATC (RADAR)
10:25PM -27.4845 157.0506 43° Northeast 453 521 33,000  Level Aus ATC (RADAR)
10:26PM -27.4313 157.1079 44° Northeast 452 520 33,000  Level Aus ATC (RADAR)
10:27PM -27.3599 157.1808 42° Northeast 458 527 33,000  Level Aus ATC (RADAR)
10:28PM -27.2593 157.2868 43° Northeast 455 524 33,000  Level Aus ATC (RADAR)
10:29PM -27.1891 157.3602 43° Northeast 457 526 33,100 60 Climbing Aus ATC (RADAR)
10:29PM -27.1349 157.4174 43° Northeast 457 526 33,100  Level Aus ATC (RADAR)
10:31PM -26.9618 157.5968 43° Northeast 458 527 33,100  Level Aus ATC (RADAR)
10:32PM -26.8678 157.6948 43° Northeast 459 528 33,100 -120 Level Aus ATC (RADAR)
10:33PM -26.8046 157.7595 42° Northeast 459 528 33,000  Descending Aus ATC (RADAR)
10:33PM -26.7500 157.8165 43° Northeast 458 527 33,100 60 Climbing Aus ATC (RADAR)
10:34PM -26.6776 157.8887 42° Northeast 460 529 33,100  Level Aus ATC (RADAR)
10:36PM -26.5183 158.0600 44° Northeast 453 521 33,100  Level Aus ATC (RADAR)
10:36PM -26.4708 158.1074 42° Northeast 455 524 33,100  Level Aus ATC (RADAR)
10:39PM -26.1967 158.3853 49° Northeast 33,000 -60 Descending Aus ATC (Calculated)
10:41PM -26.1217 158.4823 49° Northeast  Level Estimated
10:42PM -26.0592 158.5630 49° Northeast  Level Estimated
10:43PM -25.9966 158.6437 49° Northeast  Level Estimated
10:44PM -25.9339 158.7243 49° Northeast  Level Estimated
10:45PM -25.8712 158.8048 49° Northeast  Level Estimated
10:46PM -25.8085 158.8852 49° Northeast  Level Estimated
10:47PM -25.7457 158.9655 49° Northeast  Level Estimated
10:48PM -25.6829 159.0457 49° Northeast  Level Estimated
10:49PM -25.6201 159.1259 49° Northeast  Level Estimated
10:50PM -25.5571 159.2060 49° Northeast  Level Estimated
10:50PM -25.2302 159.3508 50° Northeast 33,000  Level Aus ATC (Calculated)
10:52PM -25.1092 159.5080 50° Northeast  Level Estimated
10:53PM -25.0471 159.5885 50° Northeast  Level Estimated
10:54PM -24.9850 159.6689 50° Northeast  Level Estimated
10:55PM -24.9228 159.7493 50° Northeast  Level Estimated
10:56PM -24.8606 159.8295 49° Northeast  Level Estimated
10:57PM -24.7983 159.9097 49° Northeast  Level Estimated
10:58PM -24.7360 159.9898 49° Northeast  Level Estimated
10:59PM -24.6737 160.0699 49° Northeast  Level Estimated
11:00PM -24.6113 160.1498 49° Northeast  Level Estimated
11:01PM -24.5489 160.2296 49° Northeast  Level Estimated
11:02PM -24.4864 160.3094 49° Northeast  Level Estimated
11:03PM -24.4239 160.3891 49° Northeast  Level Estimated
11:04PM -24.3613 160.4688 49° Northeast  Level Estimated
11:05PM -24.2987 160.5483 49° Northeast  Level Estimated
11:06PM -24.2361 160.6278 49° Northeast  Level Estimated
11:07PM -24.1734 160.7072 49° Northeast  Level Estimated
11:08PM -24.1107 160.7865 49° Northeast  Level Estimated
11:09PM -24.0479 160.8657 49° Northeast  Level Estimated
11:10PM -23.9851 160.9449 49° Northeast  Level Estimated
11:11PM -23.9222 161.0239 49° Northeast  Level Estimated
11:12PM -23.8594 161.1029 49° Northeast  Level Estimated
11:13PM -23.7964 161.1819 49° Northeast  Level Estimated
11:13PM -23.0151 161.4858 52° Northeast 33,000  Level Aus ATC (Calculated)
11:14PM -22.9555 161.5673 52° Northeast  Level Estimated
11:15PM -22.8959 161.6487 52° Northeast  Level Estimated
11:15PM -22.8116 161.6770 52° Northeast 33,000  Level Aus ATC (Calculated)
11:17PM -22.6951 161.8375 52° Northeast  Level Estimated
11:18PM -22.6358 161.9191 52° Northeast  Level Estimated
11:19PM -22.5765 162.0005 52° Northeast  Level Estimated
11:19PM -22.3656 162.0933 184° South 33,000  Level Aus ATC (Calculated)
11:20PM -22.5171 162.0819 52° Northeast  Level Estimated
11:21PM -22.3014 162.1837 53° Northeast  Level Estimated
11:22PM -22.2431 162.2658 52° Northeast  Level Estimated
11:23PM -22.1847 162.3478 52° Northeast  Level Estimated
11:24PM -22.1263 162.4297 52° Northeast  Level Estimated
11:25PM -22.0678 162.5116 52° Northeast  Level Estimated
11:25PM -21.8737 162.5482 53° Northeast 33,000  Level Aus ATC (Calculated)
11:26PM -21.8166 162.6311 53° Northeast  Level Estimated
11:27PM -21.7595 162.7139 53° Northeast  Level Estimated
11:28PM -21.7024 162.7967 53° Northeast  Level Estimated
11:29PM -21.6453 162.8793 53° Northeast  Level Estimated
11:30PM -21.5880 162.9620 53° Northeast  Level Estimated
11:31PM -21.5308 163.0445 53° Northeast  Level Estimated
11:32PM -21.4735 163.1270 53° Northeast  Level Estimated
11:33PM -21.4162 163.2095 53° Northeast  Level Estimated
11:34PM -21.3588 163.2918 53° Northeast  Level Estimated
11:35PM -21.3014 163.3741 53° Northeast  Level Estimated
11:36PM -21.2439 163.4563 53° Northeast  Level Estimated
11:37PM -21.1864 163.5385 53° Northeast  Level Estimated
11:38PM -21.1289 163.6206 53° Northeast  Level Estimated
11:39PM -21.0714 163.7027 53° Northeast  Level Estimated
11:40PM -21.0137 163.7846 53° Northeast  Level Estimated
11:41PM -20.9561 163.8665 53° Northeast  Level Estimated
11:42PM -20.8984 163.9484 53° Northeast  Level Estimated
11:43PM -20.8407 164.0302 53° Northeast  Level Estimated
11:44PM -20.7829 164.1119 53° Northeast  Level Estimated
11:45PM -20.7251 164.1936 53° Northeast  Level Estimated
11:46PM -20.6673 164.2752 53° Northeast  Level Estimated
11:47PM -20.6094 164.3567 53° Northeast  Level Estimated
11:48PM -20.5515 164.4382 53° Northeast  Level Estimated
11:49PM -20.4935 164.5196 53° Northeast  Level Estimated
11:50PM -20.4356 164.6010 53° Northeast  Level Estimated
11:51PM -20.3775 164.6822 53° Northeast  Level Estimated
11:52PM -20.3195 164.7635 53° Northeast  Level Estimated
11:53PM -20.2614 164.8446 53° Northeast  Level Estimated
11:54PM -20.2032 164.9258 53° Northeast  Level Estimated
11:55PM -20.1450 165.0068 53° Northeast  Level Estimated
11:56PM -20.0868 165.0878 53° Northeast  Level Estimated
11:57PM -20.0286 165.1687 53° Northeast  Level Estimated
11:58PM -19.9703 165.2496 53° Northeast  Level Estimated
11:59PM -19.9119 165.3304 52° Northeast  Level Estimated
12:00AM -19.8536 165.4111 52° Northeast  Level Estimated
12:01AM -19.7952 165.4918 52° Northeast  Level Estimated
12:02AM -19.7367 165.5725 52° Northeast  Level Estimated
12:04AM -19.5837 165.7832 52° Northeast  Level Estimated
12:06AM -19.5026 165.8944 52° Northeast  Level Estimated
12:07AM -19.4440 165.9747 52° Northeast  Level Estimated
12:08AM -19.3854 166.0550 52° Northeast  Level Estimated
12:09AM -19.3267 166.1352 52° Northeast  Level Estimated
12:10AM -19.2680 166.2154 52° Northeast  Level Estimated
12:11AM -19.2092 166.2955 52° Northeast  Level Estimated
12:12AM -19.1504 166.3756 52° Northeast  Level Estimated
12:13AM -19.0916 166.4556 52° Northeast  Level Estimated
12:14AM -19.0328 166.5355 52° Northeast  Level Estimated
12:15AM -18.9739 166.6154 52° Northeast  Level Estimated
12:16AM -18.9149 166.6952 52° Northeast  Level Estimated
12:17AM -18.8560 166.7749 52° Northeast  Level Estimated
12:18AM -18.7970 166.8546 52° Northeast  Level Estimated
12:19AM -18.7380 166.9343 52° Northeast  Level Estimated
12:20AM -18.6789 167.0139 52° Northeast  Level Estimated
12:21AM -18.6198 167.0934 52° Northeast  Level Estimated
12:22AM -18.5607 167.1729 52° Northeast  Level Estimated
12:23AM -18.5015 167.2524 52° Northeast  Level Estimated
12:24AM -18.4423 167.3317 52° Northeast  Level Estimated
12:25AM -18.3831 167.4111 52° Northeast  Level Estimated
12:26AM -18.3238 167.4903 52° Northeast  Level Estimated
12:27AM -18.2645 167.5695 52° Northeast  Level Estimated
12:28AM -18.2052 167.6487 52° Northeast  Level Estimated
12:29AM -18.1458 167.7278 52° Northeast  Level Estimated
12:30AM -18.0865 167.8069 52° Northeast  Level Estimated
12:31AM -18.0270 167.8859 52° Northeast  Level Estimated
12:32AM -17.9676 167.9648 52° Northeast  Level Estimated
12:33AM -17.9081 168.0437 52° Northeast  Level Estimated
12:34AM -17.8486 168.1225 52° Northeast  Level Estimated